Time;durP1;ratioP1;P1;durP2;ratioP2;P2;SDS_P1;SDS_P2;PMS_P1;PMS_P2;Temp;Humidity;BMP_temperature;BMP_pressure;BME280_temperature;BME280_humidity;BME280_pressure;Samples;Min_cycle;Max_cycle;Signal;HPM_P1;HPM_P2
2023/09/17 00:01:05;;;;;;;4.90;1.83;;;17.70;99.90;;;;;;4941969;29;20036;-80
2023/09/17 00:03:32;;;;;;;2.42;1.52;;;17.70;99.90;;;;;;4956114;28;20518;-80
2023/09/17 00:05:58;;;;;;;2.80;1.95;;;17.70;99.90;;;;;;4946016;28;20035;-81
2023/09/17 00:08:24;;;;;;;3.03;1.95;;;17.60;99.90;;;;;;4951030;28;20032;-80
2023/09/17 00:10:50;;;;;;;4.25;3.10;;;17.60;99.90;;;;;;4961331;28;20389;-80
2023/09/17 00:13:16;;;;;;;4.10;2.53;;;17.50;99.90;;;;;;4958251;28;20024;-83
2023/09/17 00:15:42;;;;;;;2.72;2.13;;;17.50;99.90;;;;;;4946045;28;20035;-80
2023/09/17 00:18:08;;;;;;;2.53;1.80;;;17.50;99.90;;;;;;4951563;28;20385;-81
2023/09/17 00:20:34;;;;;;;2.85;1.85;;;17.50;99.90;;;;;;4946001;28;20019;-80
2023/09/17 00:23:00;;;;;;;3.35;2.30;;;17.50;99.90;;;;;;4953228;28;20087;-82
2023/09/17 00:25:26;;;;;;;3.22;2.92;;;17.50;99.90;;;;;;4937218;29;20110;-80
2023/09/17 00:27:52;;;;;;;3.63;1.83;;;17.40;99.90;;;;;;4953393;28;20118;-81
2023/09/17 00:30:18;;;;;;;3.75;2.38;;;17.40;99.90;;;;;;4960508;28;20403;-80
2023/09/17 00:32:44;;;;;;;2.60;2.08;;;17.40;99.90;;;;;;4945499;29;20020;-81
2023/09/17 00:35:12;;;;;;;3.92;2.53;;;17.40;99.90;;;;;;4945404;28;20054;-80
2023/09/17 00:37:38;;;;;;;2.97;2.25;;;17.40;99.90;;;;;;4957404;28;20127;-80
2023/09/17 00:40:11;;;;;;;2.70;1.75;;;17.30;99.90;;;;;;4959117;28;20114;-80
2023/09/17 00:42:45;;;;;;;4.20;2.00;;;17.30;99.90;;;;;;4958601;28;20062;-80
2023/09/17 00:45:12;;;;;;;4.25;1.90;;;17.30;99.90;;;;;;4939982;29;20483;-80
2023/09/17 00:47:38;;;;;;;2.67;1.92;;;17.20;99.90;;;;;;4945187;28;20036;-82
2023/09/17 00:50:05;;;;;;;2.83;2.25;;;17.20;99.90;;;;;;4957336;28;20023;-82
2023/09/17 00:52:33;;;;;;;2.15;1.38;;;17.20;99.90;;;;;;4935727;29;20039;-82
2023/09/17 00:55:00;;;;;;;4.00;1.83;;;17.10;99.90;;;;;;4944239;29;20111;-83
2023/09/17 00:57:26;;;;;;;3.75;1.92;;;17.10;99.90;;;;;;4959822;28;20456;-84
2023/09/17 00:59:52;;;;;;;3.45;2.22;;;17.10;99.90;;;;;;4940354;29;20059;-83
2023/09/17 01:02:21;;;;;;;4.07;2.58;;;17.00;99.90;;;;;;4947612;28;20031;-83
2023/09/17 01:04:49;;;;;;;4.18;2.65;;;17.00;99.90;;;;;;4957856;28;20027;-83
2023/09/17 01:07:22;;;;;;;2.92;2.08;;;16.90;99.90;;;;;;4960155;28;20020;-83
2023/09/17 01:09:48;;;;;;;3.97;2.22;;;16.90;99.90;;;;;;4947748;28;20452;-83
2023/09/17 01:12:14;;;;;;;3.05;2.67;;;16.80;99.90;;;;;;4957877;28;20059;-82
2023/09/17 01:14:40;;;;;;;4.18;3.63;;;16.70;99.90;;;;;;4958259;28;20502;-81
2023/09/17 01:17:10;;;;;;;5.97;3.65;;;16.50;99.90;;;;;;4960072;28;20470;-82
2023/09/17 01:19:36;;;;;;;3.80;3.05;;;16.40;99.90;;;;;;4957939;28;20027;-82
2023/09/17 01:22:07;;;;;;;4.20;3.22;;;16.40;99.90;;;;;;4934885;29;20089;-82
2023/09/17 01:24:37;;;;;;;5.43;3.60;;;16.40;99.90;;;;;;4955256;28;20031;-82
2023/09/17 01:27:03;;;;;;;;;;;16.40;99.90;;;;;;4943443;28;20038;-82
2023/09/17 01:29:36;;;;;;;3.13;2.83;;;16.40;99.90;;;;;;4953373;28;19914;-83
2023/09/17 01:32:03;;;;;;;4.10;2.85;;;16.30;99.90;;;;;;4959686;28;20038;-83
2023/09/17 01:34:29;;;;;;;4.38;3.22;;;16.30;99.90;;;;;;4942437;29;20023;-84
2023/09/17 01:36:59;;;;;;;3.55;3.08;;;16.20;99.90;;;;;;4945172;28;20047;-82
2023/09/17 01:39:29;;;;;;;2.85;2.55;;;16.10;99.90;;;;;;4945583;29;20031;-83
2023/09/17 01:41:55;;;;;;;;;;;16.20;99.90;;;;;;4961716;28;20035;-82
2023/09/17 01:44:24;;;;;;;4.65;4.22;;;16.20;99.90;;;;;;4944346;28;19965;-82
2023/09/17 01:46:51;;;;;;;5.20;4.60;;;16.10;99.90;;;;;;4945327;28;20027;-83
2023/09/17 01:49:17;;;;;;;4.45;3.65;;;16.20;99.90;;;;;;4947132;28;20027;-82
2023/09/17 01:51:44;;;;;;;5.60;4.95;;;16.10;99.90;;;;;;4948177;28;20122;-82
2023/09/17 01:54:10;;;;;;;6.50;5.72;;;16.00;99.90;;;;;;4937694;28;20023;-82
2023/09/17 01:56:39;;;;;;;6.55;4.97;;;15.90;99.90;;;;;;4949549;28;20616;-81
2023/09/17 01:59:04;;;;;;;3.90;3.47;;;16.00;99.90;;;;;;4945515;28;20426;-84
2023/09/17 02:01:30;;;;;;;5.10;4.60;;;16.10;99.90;;;;;;4957829;28;20030;-83
2023/09/17 02:03:57;;;;;;;4.90;4.20;;;16.00;99.90;;;;;;4944476;28;20028;-82
2023/09/17 02:06:24;;;;;;;5.18;4.40;;;16.00;99.90;;;;;;4962263;28;20035;-83
2023/09/17 02:08:49;;;;;;;4.13;3.00;;;16.00;99.90;;;;;;4950783;28;20027;-84
2023/09/17 02:11:15;;;;;;;4.43;3.95;;;16.00;99.90;;;;;;4945890;28;20387;-84
2023/09/17 02:13:41;;;;;;;3.55;3.20;;;16.00;99.90;;;;;;4958039;28;20049;-82
2023/09/17 02:16:07;;;;;;;4.43;4.03;;;16.00;99.90;;;;;;4960104;28;20126;-85
2023/09/17 02:18:33;;;;;;;8.18;5.40;;;16.00;99.90;;;;;;4948772;28;20077;-82
2023/09/17 02:20:58;;;;;;;3.78;3.47;;;15.90;99.90;;;;;;4942902;28;20451;-83
2023/09/17 02:23:25;;;;;;;4.78;4.28;;;15.90;99.90;;;;;;4961496;28;20134;-82
2023/09/17 02:25:51;;;;;;;4.80;4.40;;;15.80;99.90;;;;;;4961782;28;20092;-85
2023/09/17 02:28:17;;;;;;;5.07;4.43;;;15.90;99.90;;;;;;4955694;28;20038;-84
2023/09/17 02:30:44;;;;;;;5.13;4.35;;;15.80;99.90;;;;;;4946527;28;20049;-83
2023/09/17 02:33:10;;;;;;;5.30;4.43;;;15.80;99.90;;;;;;4946191;28;20471;-85
2023/09/17 02:35:37;;;;;;;5.88;5.25;;;15.70;99.90;;;;;;4963676;28;20383;-84
2023/09/17 02:38:04;;;;;;;4.13;3.72;;;15.70;99.90;;;;;;4946356;28;20530;-83
2023/09/17 02:40:29;;;;;;;3.33;3.00;;;15.70;99.90;;;;;;4945216;28;20027;-83
2023/09/17 02:42:55;;;;;;;4.93;4.53;;;15.70;99.90;;;;;;4947526;28;20073;-82
2023/09/17 02:45:21;;;;;;;6.97;5.50;;;15.70;99.90;;;;;;4943729;28;20058;-84
2023/09/17 02:47:46;;;;;;;4.60;4.20;;;15.60;99.90;;;;;;4961364;28;20390;-83
2023/09/17 02:50:12;;;;;;;4.70;4.05;;;15.70;99.90;;;;;;4959342;28;20027;-82
2023/09/17 02:52:39;;;;;;;4.97;4.47;;;15.70;99.90;;;;;;4954245;28;20072;-82
2023/09/17 02:55:05;;;;;;;7.93;6.20;;;15.60;99.90;;;;;;4961618;28;20110;-82
2023/09/17 02:57:31;;;;;;;6.22;5.60;;;15.60;99.90;;;;;;4946191;28;20134;-82
2023/09/17 02:59:57;;;;;;;7.72;5.40;;;15.70;99.90;;;;;;4946795;28;20023;-83
2023/09/17 03:02:23;;;;;;;5.82;5.22;;;15.60;99.90;;;;;;4955235;28;20027;-83
2023/09/17 03:04:52;;;;;;;5.38;4.65;;;15.60;99.90;;;;;;4960000;28;20023;-85
2023/09/17 03:07:18;;;;;;;6.20;5.07;;;15.60;99.90;;;;;;4943963;28;20147;-85
2023/09/17 03:09:45;;;;;;;5.55;4.93;;;15.60;99.90;;;;;;4941898;28;20065;-82
2023/09/17 03:12:11;;;;;;;4.75;4.35;;;15.50;99.90;;;;;;4942208;28;20066;-83
2023/09/17 03:14:38;;;;;;;5.75;5.13;;;15.50;99.90;;;;;;4954348;28;20066;-82
2023/09/17 03:17:05;;;;;;;7.55;6.47;;;15.50;99.90;;;;;;4946463;28;20132;-83
2023/09/17 03:19:31;;;;;;;5.30;4.80;;;15.50;99.90;;;;;;4954999;28;20035;-83
2023/09/17 03:21:57;;;;;;;6.32;5.72;;;15.50;99.90;;;;;;4946487;28;20027;-84
2023/09/17 03:24:23;;;;;;;5.57;5.00;;;15.50;99.90;;;;;;4946996;28;20025;-82
2023/09/17 03:26:51;;;;;;;5.88;5.28;;;15.60;99.90;;;;;;4953836;28;20026;-83
2023/09/17 03:29:17;;;;;;;5.38;4.65;;;15.50;99.90;;;;;;4964201;28;20030;-82
2023/09/17 03:31:45;;;;;;;6.53;5.07;;;15.50;99.90;;;;;;4964603;28;20027;-83
2023/09/17 03:34:12;;;;;;;5.47;4.00;;;15.50;99.90;;;;;;4945405;28;20181;-83
2023/09/17 03:36:38;;;;;;;5.13;4.50;;;15.50;99.90;;;;;;4948735;28;20114;-85
2023/09/17 03:39:08;;;;;;;4.38;3.63;;;15.50;99.90;;;;;;4956869;28;20028;-82
2023/09/17 03:41:34;;;;;;;5.35;4.32;;;15.50;99.90;;;;;;4940201;28;20034;-83
2023/09/17 03:44:00;;;;;;;4.85;3.92;;;15.50;99.90;;;;;;4948809;28;20047;-82
2023/09/17 03:46:26;;;;;;;4.22;3.83;;;15.60;99.90;;;;;;4951594;28;20045;-82
2023/09/17 03:48:53;;;;;;;4.93;4.43;;;15.60;99.90;;;;;;4957898;28;20034;-82
2023/09/17 03:51:19;;;;;;;5.47;4.97;;;15.60;99.90;;;;;;4963936;28;20027;-83
2023/09/17 03:53:45;;;;;;;5.85;4.32;;;15.60;99.90;;;;;;4951394;28;20026;-82
2023/09/17 03:56:12;;;;;;;5.22;4.72;;;15.50;99.90;;;;;;4946844;28;20468;-82
2023/09/17 03:58:37;;;;;;;6.60;5.60;;;15.60;99.90;;;;;;4950876;28;20109;-82
2023/09/17 04:01:06;;;;;;;5.25;4.75;;;15.50;99.90;;;;;;4956852;28;20034;-84
2023/09/17 04:03:32;;;;;;;5.85;5.05;;;15.50;99.90;;;;;;4962618;28;20111;-82
2023/09/17 04:05:58;;;;;;;5.75;4.95;;;15.50;99.90;;;;;;4946158;28;20035;-82
2023/09/17 04:08:24;;;;;;;5.53;5.00;;;15.50;99.90;;;;;;4949531;28;20038;-82
2023/09/17 04:10:54;;;;;;;5.95;5.45;;;15.50;99.90;;;;;;4951099;28;20035;-82
2023/09/17 04:13:19;;;;;;;7.15;5.97;;;15.50;99.90;;;;;;4950937;28;20643;-83
2023/09/17 04:15:45;;;;;;;6.47;5.85;;;15.60;99.90;;;;;;4957005;28;20092;-82
2023/09/17 04:18:11;;;;;;;5.97;5.32;;;15.60;99.90;;;;;;4960551;28;20390;-83
2023/09/17 04:20:37;;;;;;;6.63;5.55;;;15.60;99.90;;;;;;4946531;28;20696;-84
2023/09/17 04:23:03;;;;;;;5.18;4.53;;;15.60;99.90;;;;;;4950485;28;20124;-85
2023/09/17 04:25:31;;;;;;;6.65;5.25;;;15.60;99.90;;;;;;4950993;28;20031;-87
2023/09/17 04:27:57;;;;;;;5.93;5.03;;;15.60;99.90;;;;;;4956781;28;20122;-83
2023/09/17 04:30:23;;;;;;;4.68;4.28;;;15.70;99.90;;;;;;4963989;28;20027;-82
2023/09/17 04:32:51;;;;;;;5.65;5.00;;;15.70;99.90;;;;;;4963955;28;20031;-83
2023/09/17 04:35:17;;;;;;;6.03;5.43;;;15.60;99.90;;;;;;4947083;28;20509;-85
2023/09/17 04:37:45;;;;;;;5.75;5.22;;;15.60;99.90;;;;;;4949953;28;20032;-83
2023/09/17 04:40:11;;;;;;;5.90;4.63;;;15.70;99.90;;;;;;4957129;28;20038;-82
2023/09/17 04:42:43;;;;;;;5.57;5.07;;;15.60;99.90;;;;;;4962129;28;20069;-83
2023/09/17 04:45:11;;;;;;;5.85;4.20;;;15.70;99.90;;;;;;4946894;28;20026;-82
2023/09/17 04:47:38;;;;;;;6.13;5.53;;;15.60;99.90;;;;;;4960846;28;20085;-84
2023/09/17 04:50:12;;;;;;;7.78;6.78;;;15.60;99.90;;;;;;4963645;28;20078;-86
2023/09/17 04:52:38;;;;;;;6.10;5.50;;;15.60;99.90;;;;;;4962944;28;20038;-81
2023/09/17 04:55:05;;;;;;;6.80;6.13;;;15.60;99.90;;;;;;4961708;28;20031;-87
2023/09/17 04:57:33;;;;;;;4.38;3.97;;;15.60;99.90;;;;;;4950543;28;20070;-84
2023/09/17 05:00:07;;;;;;;5.63;4.97;;;15.70;99.90;;;;;;4961048;28;20159;-82
2023/09/17 05:02:33;;;;;;;4.07;3.55;;;15.70;99.90;;;;;;4948743;28;20027;-83
2023/09/17 05:04:59;;;;;;;6.18;5.57;;;15.70;99.90;;;;;;4945468;28;20042;-81
2023/09/17 05:07:24;;;;;;;7.43;6.22;;;15.70;99.90;;;;;;4958200;28;20023;-83
2023/09/17 05:09:50;;;;;;;7.68;6.45;;;15.70;99.90;;;;;;4963210;28;20129;-84
2023/09/17 05:12:16;;;;;;;6.63;5.57;;;15.70;99.90;;;;;;4942640;28;20557;-83
2023/09/17 05:14:42;;;;;;;6.05;5.00;;;15.80;99.90;;;;;;4956434;28;20027;-81
2023/09/17 05:17:08;;;;;;;6.60;5.05;;;15.80;99.90;;;;;;4946078;28;20089;-82
2023/09/17 05:19:34;;;;;;;8.40;4.68;;;15.80;99.90;;;;;;4946537;28;20020;-81
2023/09/17 05:21:59;;;;;;;5.40;4.90;;;15.80;99.90;;;;;;4961572;28;20125;-83
2023/09/17 05:24:25;;;;;;;5.50;5.00;;;15.80;99.90;;;;;;4949878;28;20027;-84
2023/09/17 05:26:51;;;;;;;6.07;5.53;;;15.80;99.90;;;;;;4943106;28;20439;-81
2023/09/17 05:29:17;;;;;;;7.85;6.40;;;15.90;99.90;;;;;;4945955;28;20119;-83
2023/09/17 05:31:44;;;;;;;7.05;6.40;;;15.90;99.90;;;;;;4949275;28;20033;-82
2023/09/17 05:34:13;;;;;;;5.53;4.85;;;15.90;99.90;;;;;;4949744;28;20038;-82
2023/09/17 05:36:39;;;;;;;7.43;6.50;;;15.90;99.90;;;;;;4944887;28;20422;-84
2023/09/17 05:39:06;;;;;;;7.20;6.10;;;16.00;99.90;;;;;;4949844;28;20019;-82
2023/09/17 05:41:32;;;;;;;6.82;6.13;;;15.90;99.90;;;;;;4961852;28;20027;-84
2023/09/17 05:43:58;;;;;;;6.47;5.80;;;15.90;99.90;;;;;;4958888;28;20043;-86
2023/09/17 05:46:24;;;;;;;6.43;5.78;;;16.00;99.90;;;;;;4962494;28;20027;-83
2023/09/17 05:48:49;;;;;;;8.80;7.05;;;15.90;99.90;;;;;;4949236;28;20034;-85
2023/09/17 05:51:15;;;;;;;10.85;8.90;;;15.90;99.90;;;;;;4949800;28;20069;-85
2023/09/17 05:53:41;;;;;;;9.27;8.10;;;15.90;99.90;;;;;;4943598;28;20027;-83
2023/09/17 05:56:07;;;;;;;8.38;7.30;;;15.90;99.90;;;;;;4944398;28;20084;-82
2023/09/17 05:58:34;;;;;;;8.38;5.95;;;15.90;99.90;;;;;;4954807;28;20027;-84
2023/09/17 06:01:01;;;;;;;5.07;4.57;;;15.90;99.90;;;;;;4950309;28;20038;-83
2023/09/17 06:03:27;;;;;;;6.72;5.95;;;15.80;99.90;;;;;;4961712;28;20650;-84
2023/09/17 06:05:55;;;;;;;7.50;5.72;;;15.80;99.90;;;;;;4949347;28;20157;-84
2023/09/17 06:08:22;;;;;;;6.60;4.85;;;15.80;99.90;;;;;;4947554;28;20038;-83
2023/09/17 06:10:48;;;;;;;7.35;5.93;;;15.80;99.90;;;;;;4944660;28;20030;-82
2023/09/17 06:13:15;;;;;;;4.68;4.22;;;15.80;99.90;;;;;;4943884;28;20035;-84
2023/09/17 06:15:43;;;;;;;6.55;5.88;;;15.80;99.90;;;;;;4956000;28;20053;-82
2023/09/17 06:18:08;;;;;;;7.65;6.55;;;15.80;99.90;;;;;;4942301;28;20152;-82
2023/09/17 06:20:34;;;;;;;5.60;5.03;;;15.70;99.90;;;;;;4941563;28;20106;-83
2023/09/17 06:23:00;;;;;;;7.93;6.93;;;15.70;99.90;;;;;;4947495;28;20072;-85
2023/09/17 06:25:25;;;;;;;7.57;6.45;;;15.70;99.90;;;;;;4955859;28;20049;-83
2023/09/17 06:27:52;;;;;;;5.72;5.13;;;15.70;99.90;;;;;;4955081;28;20499;-85
2023/09/17 06:30:18;;;;;;;5.85;5.25;;;15.70;99.90;;;;;;4959530;28;20110;-84
2023/09/17 06:32:44;;;;;;;5.00;4.50;;;15.70;99.90;;;;;;4954446;28;20042;-84
2023/09/17 06:35:09;;;;;;;6.82;5.18;;;15.70;99.90;;;;;;4946050;28;20106;-85
2023/09/17 06:37:35;;;;;;;7.30;5.20;;;15.70;99.90;;;;;;4960165;28;20473;-84
2023/09/17 06:40:01;;;;;;;5.00;4.15;;;15.80;99.90;;;;;;4955276;28;20049;-86
2023/09/17 06:42:29;;;;;;;5.32;4.25;;;15.80;99.90;;;;;;4948616;28;20047;-84
2023/09/17 06:44:55;;;;;;;4.90;4.10;;;15.80;99.90;;;;;;4959344;28;20035;-83
2023/09/17 06:47:21;;;;;;;4.95;4.22;;;15.90;99.90;;;;;;4947415;28;20035;-84
2023/09/17 06:49:46;;;;;;;5.00;3.78;;;15.90;99.90;;;;;;4945578;28;20031;-86
2023/09/17 06:52:12;;;;;;;5.15;4.60;;;16.00;99.90;;;;;;4947587;28;20031;-82
2023/09/17 06:54:38;;;;;;;5.30;4.47;;;16.00;99.90;;;;;;4957995;28;20062;-84
2023/09/17 06:57:04;;;;;;;6.18;4.05;;;16.00;99.90;;;;;;4948175;28;20248;-87
2023/09/17 06:59:29;;;;;;;4.80;4.30;;;16.00;99.90;;;;;;4962183;28;20031;-83
2023/09/17 07:01:55;;;;;;;5.05;4.13;;;16.10;99.90;;;;;;4948056;28;20096;-81
2023/09/17 07:04:21;;;;;;;5.78;4.60;;;16.10;99.90;;;;;;4964481;28;20066;-83
2023/09/17 07:06:46;;;;;;;6.28;5.20;;;16.10;99.90;;;;;;4949024;28;20077;-84
2023/09/17 07:09:13;;;;;;;3.72;3.08;;;16.20;99.90;;;;;;4948979;28;20043;-83
2023/09/17 07:11:38;;;;;;;4.55;3.70;;;16.30;99.90;;;;;;4948830;28;20446;-83
2023/09/17 07:14:09;;;;;;;5.30;4.80;;;16.30;99.90;;;;;;4948410;28;20027;-83
2023/09/17 07:16:36;;;;;;;4.90;3.97;;;16.30;99.90;;;;;;4966400;28;20088;-82
2023/09/17 07:19:02;;;;;;;5.28;4.70;;;16.30;99.90;;;;;;4956077;28;20130;-83
2023/09/17 07:21:27;;;;;;;4.57;3.75;;;16.40;99.90;;;;;;4951685;28;20035;-82
2023/09/17 07:23:53;;;;;;;6.03;5.05;;;16.40;99.90;;;;;;4934488;28;20026;-82
2023/09/17 07:26:21;;;;;;;6.75;6.05;;;16.30;99.90;;;;;;4954134;28;20023;-83
2023/09/17 07:28:47;;;;;;;4.93;4.43;;;16.30;99.90;;;;;;4964280;28;20033;-82
2023/09/17 07:31:14;;;;;;;5.43;4.93;;;16.30;99.90;;;;;;4931280;28;20386;-82
2023/09/17 07:33:42;;;;;;;5.95;5.38;;;16.40;99.90;;;;;;4961655;28;20398;-82
2023/09/17 07:36:11;;;;;;;5.82;5.10;;;16.40;99.90;;;;;;4963705;28;20406;-82
2023/09/17 07:38:37;;;;;;;5.53;4.88;;;16.40;99.90;;;;;;4934870;28;20027;-82
2023/09/17 07:41:03;;;;;;;7.47;6.00;;;16.30;99.90;;;;;;4950328;28;20023;-82
2023/09/17 07:43:28;;;;;;;5.63;4.57;;;16.30;99.90;;;;;;4930626;28;20497;-82
2023/09/17 07:45:54;;;;;;;6.45;5.35;;;16.30;99.90;;;;;;4947732;28;20410;-80
2023/09/17 07:48:20;;;;;;;6.22;5.53;;;16.20;99.90;;;;;;4967774;28;20153;-82
2023/09/17 07:50:55;;;;;;;5.32;4.82;;;16.10;99.90;;;;;;4952144;28;20071;-82
2023/09/17 07:53:21;;;;;;;5.97;5.22;;;16.20;99.90;;;;;;4964714;28;20105;-84
2023/09/17 07:55:46;;;;;;;4.88;4.32;;;16.20;99.90;;;;;;4965066;28;20616;-81
2023/09/17 07:58:12;;;;;;;7.05;5.63;;;16.20;99.90;;;;;;4955938;28;20043;-80
2023/09/17 08:00:38;;;;;;;6.32;5.22;;;16.10;99.90;;;;;;4958734;28;20035;-81
2023/09/17 08:03:04;;;;;;;5.78;5.20;;;16.20;99.90;;;;;;4948716;28;20034;-82
2023/09/17 08:05:29;;;;;;;6.93;5.32;;;16.20;99.90;;;;;;4957982;28;20402;-84
2023/09/17 08:07:56;;;;;;;6.72;5.97;;;16.20;99.90;;;;;;4950453;28;20050;-82
2023/09/17 08:10:21;;;;;;;5.97;5.40;;;16.20;99.90;;;;;;4948823;28;20069;-81
2023/09/17 08:12:47;;;;;;;7.07;5.57;;;16.20;99.90;;;;;;4946894;28;20470;-81
2023/09/17 08:15:14;;;;;;;6.57;5.85;;;16.20;99.90;;;;;;4964051;28;20092;-82
2023/09/17 08:17:40;;;;;;;8.05;6.28;;;16.30;99.90;;;;;;4946888;28;20534;-82
2023/09/17 08:20:09;;;;;;;6.68;6.05;;;16.30;99.90;;;;;;4957893;28;20114;-82
2023/09/17 08:22:35;;;;;;;7.72;6.45;;;16.30;99.90;;;;;;4948010;28;20034;-82
2023/09/17 08:25:01;;;;;;;6.82;6.15;;;16.30;99.90;;;;;;4947354;28;20420;-81
2023/09/17 08:27:27;;;;;;;6.32;4.60;;;16.30;99.90;;;;;;4948465;28;20041;-82
2023/09/17 08:29:53;;;;;;;7.88;6.00;;;16.40;99.90;;;;;;4947424;28;20035;-82
2023/09/17 08:32:18;;;;;;;6.68;5.97;;;16.40;99.90;;;;;;4949194;28;20033;-82
2023/09/17 08:34:44;;;;;;;6.10;5.50;;;16.60;99.90;;;;;;4963638;28;20026;-82
2023/09/17 08:37:10;;;;;;;8.38;7.50;;;16.60;99.90;;;;;;4946473;28;20471;-82
2023/09/17 08:39:35;;;;;;;9.07;6.72;;;16.60;99.90;;;;;;4954863;28;20383;-82
2023/09/17 08:42:03;;;;;;;6.70;6.00;;;16.60;99.90;;;;;;4964092;28;20048;-82
2023/09/17 08:44:32;;;;;;;8.02;6.28;;;16.70;99.90;;;;;;4959467;28;20050;-82
2023/09/17 08:46:59;;;;;;;7.70;6.80;;;16.70;99.90;;;;;;4961932;28;20509;-82
2023/09/17 08:49:25;;;;;;;11.05;7.57;;;16.80;99.90;;;;;;4949616;28;20038;-84
2023/09/17 08:51:55;;;;;;;7.18;6.40;;;16.90;99.90;;;;;;4953378;28;20023;-83
2023/09/17 08:54:26;;;;;;;9.68;8.73;;;17.00;99.90;;;;;;4953896;28;20038;-83
2023/09/17 08:56:54;;;;;;;8.70;7.80;;;16.90;99.90;;;;;;5032172;28;20246;-82
2023/09/17 08:59:28;;;;;;;9.85;8.50;;;17.00;99.90;;;;;;4962301;28;20034;-83
2023/09/17 09:01:55;;;;;;;8.70;7.70;;;17.00;99.90;;;;;;4964246;28;20052;-83
2023/09/17 09:04:22;;;;;;;9.73;8.77;;;17.10;99.90;;;;;;4953343;28;20160;-83
2023/09/17 09:06:49;;;;;;;10.27;7.47;;;17.10;99.90;;;;;;4962473;28;20050;-82
2023/09/17 09:09:16;;;;;;;9.43;7.90;;;17.10;99.90;;;;;;4948111;28;20489;-82
2023/09/17 09:11:42;;;;;;;8.20;7.35;;;17.30;99.90;;;;;;4958082;28;20031;-83
2023/09/17 09:14:08;;;;;;;8.68;7.78;;;17.50;99.90;;;;;;4961699;28;20477;-82
2023/09/17 09:16:37;;;;;;;7.03;6.40;;;17.80;99.90;;;;;;4955495;28;20039;-82
2023/09/17 09:19:04;;;;;;;7.85;6.53;;;18.00;99.90;;;;;;4947045;28;20042;-83
2023/09/17 09:21:30;;;;;;;7.88;7.07;;;18.00;99.90;;;;;;4946248;28;20518;-82
2023/09/17 09:23:59;;;;;;;9.40;7.55;;;18.00;99.90;;;;;;4943490;28;20256;-82
2023/09/17 09:26:38;;;;;;;8.38;7.57;;;18.00;99.90;;;;;;4946310;28;20149;-83
2023/09/17 09:29:06;;;;;;;7.60;6.88;;;18.00;99.90;;;;;;4958632;28;20433;-82
2023/09/17 09:31:35;;;;;;;9.55;8.27;;;18.10;99.90;;;;;;4961899;28;20613;-84
2023/09/17 09:34:02;;;;;;;8.18;7.40;;;18.10;99.90;;;;;;4955116;28;20027;-83
2023/09/17 09:36:30;;;;;;;8.38;6.68;;;18.20;99.90;;;;;;4946808;28;20494;-83
2023/09/17 09:38:56;;;;;;;9.45;8.45;;;18.20;99.90;;;;;;4947940;28;20499;-83
2023/09/17 09:41:26;;;;;;;9.65;8.48;;;18.20;99.90;;;;;;4948139;28;20031;-82
2023/09/17 09:43:53;;;;;;;8.57;7.68;;;18.10;99.90;;;;;;4946870;28;20100;-81
2023/09/17 09:46:18;;;;;;;8.80;7.15;;;18.20;99.90;;;;;;5035682;28;20059;-84
2023/09/17 09:48:46;;;;;;;7.78;6.45;;;18.20;99.90;;;;;;4948575;28;20069;-84
2023/09/17 09:51:15;;;;;;;8.77;7.97;;;18.10;99.90;;;;;;4943427;28;20556;-86
2023/09/17 09:53:41;;;;;;;7.95;7.10;;;18.30;99.90;;;;;;4963988;28;20027;-84
2023/09/17 09:56:07;;;;;;;8.63;7.72;;;18.40;99.90;;;;;;4962518;28;20033;-82
2023/09/17 09:58:33;;;;;;;9.50;8.52;;;18.40;99.90;;;;;;4948565;28;20035;-83
2023/09/17 10:01:04;;;;;;;9.13;8.23;;;18.40;99.90;;;;;;4947740;28;20045;-84
2023/09/17 10:03:30;;;;;;;9.60;8.63;;;18.40;99.90;;;;;;4948989;28;20038;-84
2023/09/17 10:06:06;;;;;;;8.90;8.00;;;18.30;99.90;;;;;;4957326;28;20556;-84
2023/09/17 10:08:37;;;;;;;10.00;8.13;;;18.40;99.90;;;;;;4946397;28;20024;-83
2023/09/17 10:11:05;;;;;;;8.30;7.45;;;18.60;99.90;;;;;;4947602;28;20060;-83
2023/09/17 10:13:33;;;;;;;10.85;9.60;;;18.70;99.90;;;;;;4947574;28;20101;-83
2023/09/17 10:15:59;;;;;;;8.93;8.02;;;18.70;99.90;;;;;;4945379;28;20043;-84
2023/09/17 10:18:27;;;;;;;11.20;9.73;;;18.70;99.90;;;;;;4928893;28;20023;-83
2023/09/17 10:20:54;;;;;;;9.25;8.35;;;18.70;99.90;;;;;;4947757;28;20057;-85
2023/09/17 10:23:22;;;;;;;11.05;9.55;;;18.80;99.90;;;;;;4962619;28;20063;-86
2023/09/17 10:25:49;;;;;;;10.85;9.45;;;18.80;99.90;;;;;;4962714;28;20087;-85
2023/09/17 10:28:16;;;;;;;13.98;9.20;;;18.80;99.90;;;;;;4964387;28;20449;-88
2023/09/17 10:30:45;;;;;;;9.38;8.45;;;18.90;99.90;;;;;;4949636;28;20027;-85
2023/09/17 10:33:13;;;;;;;9.52;8.63;;;19.00;99.90;;;;;;4970241;28;20030;-89
2023/09/17 10:35:39;;;;;;;10.15;8.93;;;19.10;99.90;;;;;;4948810;28;20448;-88
2023/09/17 10:38:07;;;;;;;8.90;7.95;;;19.20;99.90;;;;;;4948325;28;20046;-84
2023/09/17 10:40:34;;;;;;;10.18;8.50;;;19.40;99.90;;;;;;4946472;28;20035;-88
2023/09/17 10:43:02;;;;;;;8.73;7.90;;;19.40;99.90;;;;;;4964393;28;20403;-88
2023/09/17 10:45:32;;;;;;;11.32;10.20;;;19.50;99.90;;;;;;4931920;28;20104;-85
2023/09/17 10:48:01;;;;;;;11.13;9.75;;;19.50;99.90;;;;;;4949852;28;20085;-87
2023/09/17 10:50:29;;;;;;;11.15;9.77;;;19.60;99.90;;;;;;4968106;28;20035;-85
2023/09/17 10:52:55;;;;;;;12.55;11.25;;;19.60;99.90;;;;;;4962768;28;20039;-87
2023/09/17 10:55:22;;;;;;;11.05;9.95;;;19.50;99.90;;;;;;4962996;28;20355;-86
2023/09/17 10:58:06;;;;;;;15.45;13.70;;;19.50;99.90;;;;;;4946834;28;20056;-86
2023/09/17 11:00:35;;;;;;;13.05;11.00;;;19.50;99.90;;;;;;4963442;28;20037;-85
2023/09/17 11:03:04;;;;;;;14.70;12.27;;;19.50;99.90;;;;;;4944954;28;20422;-85
2023/09/17 11:05:31;;;;;;;12.55;10.60;;;19.60;99.90;;;;;;4961762;28;20080;-88
2023/09/17 11:08:02;;;;;;;11.98;10.45;;;19.70;99.90;;;;;;4943849;28;20486;-86
2023/09/17 11:10:28;;;;;;;13.73;11.60;;;19.70;99.90;;;;;;4945441;28;20065;-85
2023/09/17 11:12:54;;;;;;;13.10;11.70;;;19.80;99.90;;;;;;4934944;28;20035;-88
2023/09/17 11:15:20;;;;;;;14.30;12.80;;;19.90;99.90;;;;;;4960128;28;20517;-87
2023/09/17 11:17:50;;;;;;;12.50;11.13;;;19.90;99.90;;;;;;4945114;28;20043;-86
2023/09/17 11:20:18;;;;;;;12.80;11.10;;;20.00;99.90;;;;;;4945228;28;20434;-85
2023/09/17 11:22:50;;;;;;;12.38;11.05;;;20.10;99.90;;;;;;4959673;28;20478;-87
2023/09/17 11:25:35;;;;;;;12.75;11.50;;;20.40;99.90;;;;;;4943040;28;20035;-84
2023/09/17 11:28:19;;;;;;;13.60;12.07;;;20.40;99.90;;;;;;4961172;28;20382;-83
2023/09/17 11:31:06;;;;;;;12.98;11.43;;;20.50;99.90;;;;;;4945844;28;20023;-83
2023/09/17 11:33:32;;;;;;;11.25;10.07;;;20.60;99.90;;;;;;4976526;28;20110;-86
2023/09/17 11:36:00;;;;;;;11.50;10.45;;;20.70;99.90;;;;;;4959689;28;20118;-83
2023/09/17 11:38:28;;;;;;;11.40;10.30;;;20.90;99.90;;;;;;4950175;28;20031;-82
2023/09/17 11:41:14;;;;;;;13.48;11.45;;;21.10;99.90;;;;;;4954117;28;20031;-83
2023/09/17 11:43:45;;;;;;;13.32;11.93;;;21.20;99.90;;;;;;4959886;28;20167;-84
2023/09/17 11:46:12;;;;;;;11.13;10.02;;;21.40;99.90;;;;;;4944362;28;20057;-83
2023/09/17 11:48:41;;;;;;;11.93;10.63;;;21.70;99.90;;;;;;4962001;28;20084;-83
2023/09/17 11:51:27;;;;;;;13.00;10.82;;;21.80;99.90;;;;;;4937169;28;20046;-83
2023/09/17 11:54:04;;;;;;;9.73;8.73;;;21.90;99.90;;;;;;4967875;28;20042;-84
2023/09/17 11:56:32;;;;;;;9.75;8.75;;;22.10;99.90;;;;;;5032149;28;20561;-83
2023/09/17 11:59:04;;;;;;;10.32;9.23;;;22.00;99.90;;;;;;4949946;28;20077;-84
2023/09/17 12:01:35;;;;;;;12.48;11.18;;;21.80;99.90;;;;;;4947143;28;20503;-84
2023/09/17 12:04:03;;;;;;;10.82;9.02;;;21.60;99.90;;;;;;4932806;28;20032;-84
2023/09/17 12:06:29;;;;;;;11.20;9.43;;;21.50;99.90;;;;;;4946721;28;20043;-84
2023/09/17 12:08:59;;;;;;;7.97;7.18;;;21.50;99.90;;;;;;4960120;28;20483;-86
2023/09/17 12:11:26;;;;;;;7.72;6.95;;;21.50;99.90;;;;;;4944657;28;20019;-85
2023/09/17 12:13:53;;;;;;;8.95;8.15;;;21.60;99.90;;;;;;4949167;28;20499;-84
2023/09/17 12:16:27;;;;;;;8.10;7.07;;;21.60;99.90;;;;;;4944796;28;20539;-85
2023/09/17 12:18:54;;;;;;;8.93;8.02;;;21.80;99.90;;;;;;4959643;28;20035;-85
2023/09/17 12:21:25;;;;;;;8.13;7.20;;;22.00;99.90;;;;;;4945678;28;20027;-83
2023/09/17 12:23:57;;;;;;;8.35;7.60;;;22.00;99.90;;;;;;4963986;28;20113;-85
2023/09/17 12:26:25;;;;;;;10.02;9.07;;;22.00;99.90;;;;;;4949295;28;20048;-86
2023/09/17 12:28:51;;;;;;;8.13;7.43;;;22.00;99.90;;;;;;4949572;28;20027;-84
2023/09/17 12:31:17;;;;;;;7.88;7.07;;;22.00;99.90;;;;;;4962415;28;20479;-84
2023/09/17 12:33:43;;;;;;;7.60;6.68;;;21.90;99.90;;;;;;4950976;28;20136;-85
2023/09/17 12:36:11;;;;;;;7.78;7.00;;;21.80;99.90;;;;;;4931896;28;20045;-85
2023/09/17 12:38:36;;;;;;;8.05;6.75;;;21.90;99.90;;;;;;4962632;28;20398;-85
2023/09/17 12:41:02;;;;;;;9.02;6.30;;;21.80;99.90;;;;;;4964318;28;20129;-84
2023/09/17 12:43:28;;;;;;;6.93;6.20;;;21.80;99.90;;;;;;4961751;28;20055;-84
2023/09/17 12:45:54;;;;;;;5.80;5.30;;;21.60;99.90;;;;;;4961414;28;21782;-84